Time;durP1;ratioP1;P1;durP2;ratioP2;P2;SDS_P1;SDS_P2;PMS_P1;PMS_P2;Temp;Humidity;BMP_temperature;BMP_pressure;BME280_temperature;BME280_humidity;BME280_pressure;Samples;Min_cycle;Max_cycle;Signal;HPM_P1;HPM_P2
2022/10/17 07:02:11;;;;;;;27.70;16.00;;;;;;;;;;100469;1340;545135;-82
2022/10/17 07:04:39;;;;;;;28.60;15.20;;;;;;;;;;102660;1316;24401;-85
2022/10/17 07:07:05;;;;;;;24.70;14.90;;;;;;;;;;102691;1316;22497;-88
2022/10/17 07:09:34;;;;;;;25.20;14.60;;;;;;;;;;102664;1316;22493;-87
2022/10/17 07:12:01;;;;;;;26.30;15.30;;;;;;;;;;102543;1319;23089;-90
2022/10/17 07:14:30;;;;;;;24.80;15.00;;;;;;;;;;102468;1317;22595;-87
2022/10/17 07:16:58;;;;;;;23.90;15.10;;;;;;;;;;103142;1310;138238;-89
2022/10/17 07:19:27;;;;;;;23.50;14.90;;;;;;;;;;103058;1312;24240;-86
2022/10/17 07:21:54;;;;;;;22.40;14.90;;;;;;;;;;103590;1303;23078;-84
2022/10/17 07:24:21;;;;;;;31.80;15.70;;;;;;;;;;103562;1303;25277;-86
2022/10/17 07:26:53;;;;;;;24.20;13.30;;;;;;;;;;103866;1285;22542;-88
2022/10/17 07:29:20;;;;;;;20.50;12.80;;;;;;;;;;103616;1298;22514;-86
2022/10/17 07:31:54;;;;;;;22.90;14.20;;;;;;;;;;103848;1298;23159;-89
2022/10/17 07:34:20;;;;;;;20.80;13.30;;;;;;;;;;103623;1303;25359;-84
2022/10/17 07:36:47;;;;;;;20.40;13.70;;;;;;;;;;103523;1303;22471;-84
2022/10/17 07:39:15;;;;;;;21.50;13.40;;;;;;;;;;103663;1303;22477;-84
2022/10/17 07:41:42;;;;;;;21.10;13.80;;;;;;;;;;103600;1298;22525;-83
2022/10/17 07:44:08;;;;;;;22.90;13.80;;;;;;;;;;103590;1298;23172;-84
2022/10/17 07:46:41;;;;;;;23.30;13.90;;;;;;;;;;103696;1282;25448;-88
2022/10/17 07:49:07;;;;;;;26.20;13.40;;;;;;;;;;103943;1302;22432;-83
2022/10/17 07:51:34;;;;;;;24.90;12.60;;;;;;;;;;103770;1303;24240;-90
2022/10/17 07:54:01;;;;;;;18.90;12.80;;;;;;;;;;103812;1303;25347;-91
2022/10/17 07:56:28;;;;;;;20.20;12.80;;;;;;;;;;103886;1303;22466;-84
2022/10/17 07:58:55;;;;;;;18.60;12.20;;;;;;;;;;103612;1303;22476;-87
2022/10/17 08:01:24;;;;;;;20.10;13.20;;;;;;;;;;103545;1303;22473;-89
2022/10/17 08:03:51;;;;;;;21.20;12.50;;;;;;;;;;103595;1303;22503;-89
2022/10/17 08:06:17;;;;;;;23.00;13.30;;;;;;;;;;103979;1303;22459;-91
2022/10/17 08:08:44;;;;;;;37.90;17.00;;;;;;;;;;103662;1303;22476;-87
2022/10/17 08:11:12;;;;;;;27.60;14.20;;;;;;;;;;103847;1303;22661;-90
2022/10/17 08:13:39;;;;;;;24.20;12.70;;;;;;;;;;103929;1303;22578;-91
2022/10/17 08:16:07;;;;;;;20.70;12.40;;;;;;;;;;103678;1303;23135;-90
2022/10/17 08:18:34;;;;;;;21.80;12.30;;;;;;;;;;103593;1298;24416;-88
2022/10/17 08:21:04;;;;;;;19.10;12.40;;;;;;;;;;103705;1303;22474;-93
2022/10/17 08:23:31;;;;;;;20.30;12.50;;;;;;;;;;103761;1303;22468;-88
2022/10/17 08:25:59;;;;;;;20.70;11.90;;;;;;;;;;103827;1292;22466;-93
2022/10/17 08:28:26;;;;;;;18.70;12.60;;;;;;;;;;103942;1303;24829;-88
2022/10/17 08:30:52;;;;;;;20.60;11.90;;;;;;;;;;103837;1303;22482;-89
2022/10/17 08:33:19;;;;;;;20.10;12.20;;;;;;;;;;103611;1303;22477;-87
2022/10/17 08:35:45;;;;;;;18.90;12.70;;;;;;;;;;103968;1303;22473;-83
2022/10/17 08:38:12;;;;;;;18.20;11.90;;;;;;;;;;107334;1291;22039;-85
2022/10/17 08:40:41;;;;;;;21.30;12.90;;;;;;;;;;107002;1298;22075;-86
2022/10/17 08:43:09;;;;;;;18.30;12.50;;;;;;;;;;107090;1303;22046;-85
2022/10/17 08:45:40;;;;;;;20.20;12.50;;;;;;;;;;107172;1302;22075;-86
2022/10/17 08:48:13;;;;;;;17.90;12.10;;;;;;;;;;107169;1295;22049;-86
2022/10/17 08:50:46;;;;;;;20.30;12.20;;;;;;;;;;106974;1303;22126;-85
2022/10/17 08:53:39;;;;;;;18.60;12.50;;;;;;;;;;107002;1303;22062;-85
2022/10/17 08:56:14;;;;;;;19.10;11.90;;;;;;;;;;106889;1303;22055;-87
2022/10/17 08:58:41;;;;;;;22.20;12.10;;;;;;;;;;107350;1288;22293;-87
2022/10/17 09:01:26;;;;;;;18.70;12.30;;;;;;;;;;107128;1303;22747;-85
2022/10/17 09:04:05;;;;;;;19.80;12.20;;;;;;;;;;107163;1302;22918;-86
2022/10/17 09:06:51;;;;;;;20.50;11.90;;;;;;;;;;107057;1303;22087;-86
2022/10/17 09:09:41;;;;;;;21.60;11.90;;;;;;;;;;107064;1303;22054;-86
2022/10/17 09:12:22;;;;;;;18.80;11.30;;;;;;;;;;107099;1303;22673;-87
2022/10/17 09:14:52;;;;;;;18.60;11.80;;;;;;;;;;107062;1303;22184;-87
2022/10/17 09:17:18;;;;;;;17.80;11.40;;;;;;;;;;107147;1303;22078;-86
2022/10/17 09:19:52;;;;;;;18.60;12.20;;;;;;;;;;107077;1303;22101;-87
2022/10/17 09:22:21;;;;;;;18.40;11.40;;;;;;;;;;107350;1296;22062;-88
2022/10/17 09:24:51;;;;;;;20.00;12.20;;;;;;;;;;107040;1303;22658;-84
2022/10/17 09:27:23;;;;;;;19.40;12.80;;;;;;;;;;107141;1303;22070;-87
2022/10/17 09:29:54;;;;;;;20.80;12.50;;;;;;;;;;107140;1298;22033;-87
2022/10/17 09:32:23;;;;;;;17.90;11.60;;;;;;;;;;107027;1303;22841;-87
2022/10/17 09:34:52;;;;;;;19.10;11.80;;;;;;;;;;107063;1302;22656;-92
2022/10/17 09:37:21;;;;;;;27.20;12.60;;;;;;;;;;107065;1303;22121;-88
2022/10/17 09:39:48;;;;;;;20.10;11.90;;;;;;;;;;107182;1296;22134;-88
2022/10/17 09:42:18;;;;;;;18.90;11.90;;;;;;;;;;107108;1303;22175;-87
2022/10/17 09:44:47;;;;;;;16.90;11.30;;;;;;;;;;107151;1302;22056;-86
2022/10/17 09:47:19;;;;;;;17.70;11.80;;;;;;;;;;107086;1302;22111;-85
2022/10/17 09:49:46;;;;;;;19.60;11.70;;;;;;;;;;107065;1303;22091;-86
2022/10/17 09:52:25;;;;;;;16.50;11.30;;;;;;;;;;106974;1303;22091;-88
2022/10/17 09:54:54;;;;;;;26.80;12.90;;;;;;;;;;107144;1303;22766;-85
2022/10/17 09:57:21;;;;;;;17.20;11.00;;;;;;;;;;107000;1303;22823;-86
2022/10/17 09:59:59;;;;;;;23.60;11.30;;;;;;;;;;107052;1303;22080;-87
2022/10/17 10:02:27;;;;;;;18.20;10.90;;;;;;;;;;107048;1297;22057;-87
2022/10/17 10:05:01;;;;;;;19.10;11.10;;;;;;;;;;107058;1303;22075;-86
2022/10/17 10:07:29;;;;;;;15.60;10.30;;;;;;;;;;107118;1303;22095;-89
2022/10/17 10:09:56;;;;;;;18.90;11.40;;;;;;;;;;107091;1303;22120;-84
2022/10/17 10:12:25;;;;;;;19.40;10.90;;;;;;;;;;107149;1303;22730;-84
2022/10/17 10:14:54;;;;;;;22.20;11.00;;;;;;;;;;106947;1303;22192;-84
2022/10/17 10:17:38;;;;;;;18.80;10.80;;;;;;;;;;107094;1303;22099;-85
2022/10/17 10:20:25;;;;;;;17.80;11.50;;;;;;;;;;107114;1303;22115;-84
2022/10/17 10:23:11;;;;;;;19.60;10.30;;;;;;;;;;107042;1303;22677;-87
2022/10/17 10:25:48;;;;;;;15.50;10.60;;;;;;;;;;107130;1303;22531;-85
2022/10/17 10:28:16;;;;;;;19.80;10.20;;;;;;;;;;107279;1296;22076;-85
2022/10/17 10:30:46;;;;;;;17.40;11.10;;;;;;;;;;107110;1303;22781;-87
2022/10/17 10:33:13;;;;;;;22.80;11.20;;;;;;;;;;107290;1285;22081;-85
2022/10/17 10:35:40;;;;;;;16.50;11.00;;;;;;;;;;107063;1303;22053;-86
2022/10/17 10:38:14;;;;;;;23.90;12.50;;;;;;;;;;106971;1303;22085;-87
2022/10/17 10:40:47;;;;;;;20.70;12.10;;;;;;;;;;107151;1295;22126;-85
2022/10/17 10:43:29;;;;;;;20.90;13.00;;;;;;;;;;107120;1303;22081;-86
2022/10/17 10:45:56;;;;;;;18.90;11.90;;;;;;;;;;107128;1303;22432;-87
2022/10/17 10:48:23;;;;;;;17.40;11.70;;;;;;;;;;107090;1303;22102;-86
2022/10/17 10:50:59;;;;;;;17.30;11.10;;;;;;;;;;107053;1303;22822;-86
2022/10/17 10:53:44;;;;;;;15.90;10.50;;;;;;;;;;106981;1303;22752;-86
2022/10/17 10:56:11;;;;;;;19.00;12.20;;;;;;;;;;107072;1303;22073;-86
2022/10/17 10:58:38;;;;;;;26.20;16.80;;;;;;;;;;107172;1303;22092;-85
2022/10/17 11:01:06;;;;;;;30.50;16.20;;;;;;;;;;107128;1303;22008;-84
2022/10/17 11:03:52;;;;;;;25.20;14.20;;;;;;;;;;107128;1303;22105;-88
2022/10/17 11:06:22;;;;;;;18.70;11.90;;;;;;;;;;106943;1303;22087;-86
2022/10/17 11:09:04;;;;;;;22.50;12.40;;;;;;;;;;107367;1282;22115;-87
2022/10/17 11:11:37;;;;;;;17.50;11.90;;;;;;;;;;106953;1303;22705;-87
2022/10/17 11:14:17;;;;;;;18.90;13.20;;;;;;;;;;107036;1303;22125;-88
2022/10/17 11:16:46;;;;;;;19.70;11.60;;;;;;;;;;107356;1291;22055;-86
2022/10/17 11:19:36;;;;;;;20.50;12.30;;;;;;;;;;106973;1304;22064;-86
2022/10/17 11:22:15;;;;;;;20.10;11.90;;;;;;;;;;106966;1303;22037;-86
2022/10/17 11:24:45;;;;;;;20.20;10.00;;;;;;;;;;107261;1285;22062;-86
2022/10/17 11:27:12;;;;;;;21.90;11.00;;;;;;;;;;106980;1303;22077;-87
2022/10/17 11:29:40;;;;;;;18.50;9.90;;;;;;;;;;106882;1301;22062;-87
2022/10/17 11:32:10;;;;;;;17.40;10.50;;;;;;;;;;106980;1303;22064;-86
2022/10/17 11:34:41;;;;;;;18.20;9.50;;;;;;;;;;106948;1303;21972;-86
2022/10/17 11:37:16;;;;;;;20.50;10.80;;;;;;;;;;107040;1301;22059;-86
2022/10/17 11:39:48;;;;;;;17.70;10.10;;;;;;;;;;106979;1303;22065;-89
2022/10/17 11:42:17;;;;;;;16.20;9.20;;;;;;;;;;106971;1303;22115;-86
2022/10/17 11:44:44;;;;;;;14.50;8.90;;;;;;;;;;107077;1303;22070;-89
2022/10/17 11:47:17;;;;;;;18.10;9.40;;;;;;;;;;106983;1303;22080;-86
2022/10/17 11:49:46;;;;;;;15.00;9.10;;;;;;;;;;107132;1298;22718;-85
2022/10/17 11:52:16;;;;;;;13.60;8.20;;;;;;;;;;106992;1303;22660;-86
2022/10/17 11:55:00;;;;;;;14.00;8.10;;;;;;;;;;107061;1298;22058;-85
2022/10/17 11:57:45;;;;;;;13.60;8.20;;;;;;;;;;107000;1304;22712;-88
2022/10/17 12:00:26;;;;;;;12.50;7.30;;;;;;;;;;106953;1303;22240;-87
2022/10/17 12:02:56;;;;;;;12.70;7.50;;;;;;;;;;107057;1295;22111;-89
2022/10/17 12:05:33;;;;;;;14.20;7.30;;;;;;;;;;107041;1305;22697;-91
2022/10/17 12:08:07;;;;;;;14.10;7.40;;;;;;;;;;106962;1306;22064;-86
2022/10/17 12:10:57;;;;;;;13.60;8.00;;;;;;;;;;107195;1296;22098;-86
2022/10/17 12:13:27;;;;;;;13.30;7.50;;;;;;;;;;106960;1305;22057;-88
2022/10/17 12:15:54;;;;;;;52.30;10.60;;;;;;;;;;107128;1304;22094;-87
2022/10/17 12:18:26;;;;;;;20.30;9.60;;;;;;;;;;106945;1306;22136;-85
2022/10/17 12:20:57;;;;;;;14.50;7.80;;;;;;;;;;106942;1306;22783;-85
2022/10/17 12:23:27;;;;;;;19.00;7.90;;;;;;;;;;107145;1303;22827;-87
2022/10/17 12:26:00;;;;;;;12.70;7.60;;;;;;;;;;106971;1306;22897;-88
2022/10/17 12:28:29;;;;;;;11.80;7.70;;;;;;;;;;106971;1305;22130;-88
2022/10/17 12:31:00;;;;;;;18.10;7.60;;;;;;;;;;107015;1306;22092;-84
2022/10/17 12:33:45;;;;;;;12.60;7.20;;;;;;;;;;107043;1304;22088;-85
2022/10/17 12:36:19;;;;;;;13.00;7.40;;;;;;;;;;107337;1291;22164;-87
2022/10/17 12:38:47;;;;;;;13.60;7.60;;;;;;;;;;106951;1306;22272;-87
2022/10/17 12:41:14;;;;;;;12.50;8.00;;;;;;;;;;107016;1298;22158;-88
2022/10/17 12:43:44;;;;;;;13.50;8.20;;;;;;;;;;107044;1305;22096;-86
2022/10/17 12:46:11;;;;;;;12.30;7.20;;;;;;;;;;107031;1305;22077;-86
2022/10/17 12:48:38;;;;;;;13.80;8.10;;;;;;;;;;106959;1306;22181;-86
2022/10/17 12:51:16;;;;;;;18.20;8.70;;;;;;;;;;107023;1289;21963;-86
2022/10/17 12:53:55;;;;;;;13.30;7.90;;;;;;;;;;107036;1305;22145;-88
2022/10/17 12:56:49;;;;;;;12.70;7.10;;;;;;;;;;107017;1305;22716;-88
2022/10/17 12:59:19;;;;;;;15.80;8.10;;;;;;;;;;107111;1306;22062;-87
2022/10/17 13:01:48;;;;;;;14.00;8.60;;;;;;;;;;106983;1305;22094;-88
2022/10/17 13:04:15;;;;;;;13.00;8.40;;;;;;;;;;106990;1306;22050;-88
2022/10/17 13:06:45;;;;;;;14.20;7.90;;;;;;;;;;106947;1306;22068;-87
2022/10/17 13:09:25;;;;;;;14.60;8.10;;;;;;;;;;106940;1306;22098;-87
2022/10/17 13:11:52;;;;;;;13.00;7.50;;;;;;;;;;106988;1306;22681;-88
2022/10/17 13:14:20;;;;;;;14.30;8.20;;;;;;;;;;106945;1304;22076;-87
2022/10/17 13:16:54;;;;;;;14.80;7.70;;;;;;;;;;106946;1306;22064;-87
2022/10/17 13:19:23;;;;;;;14.00;7.70;;;;;;;;;;106957;1301;22172;-87
2022/10/17 13:21:49;;;;;;;14.10;7.50;;;;;;;;;;107002;1306;22197;-86
2022/10/17 13:24:30;;;;;;;13.20;7.90;;;;;;;;;;107071;1306;22054;-85
2022/10/17 13:26:58;;;;;;;16.20;7.60;;;;;;;;;;106999;1300;22069;-86
2022/10/17 13:29:27;;;;;;;12.70;7.10;;;;;;;;;;106937;1306;22125;-87
2022/10/17 13:31:56;;;;;;;18.20;9.10;;;;;;;;;;106893;1301;22084;-87
2022/10/17 13:34:24;;;;;;;18.80;8.40;;;;;;;;;;106922;1306;22142;-86
2022/10/17 13:36:52;;;;;;;30.40;20.40;;;;;;;;;;106881;1305;22091;-86
2022/10/17 13:39:21;;;;;;;18.40;8.10;;;;;;;;;;106955;1306;21916;-87
2022/10/17 13:41:48;;;;;;;19.90;9.80;;;;;;;;;;106948;1306;22114;-90
2022/10/17 13:44:25;;;;;;;13.00;7.00;;;;;;;;;;106888;1306;21670;-88
2022/10/17 13:46:52;;;;;;;15.50;7.70;;;;;;;;;;106967;1306;22070;-88
2022/10/17 13:49:21;;;;;;;13.90;7.50;;;;;;;;;;106935;1301;22081;-87
2022/10/17 13:51:51;;;;;;;12.60;7.20;;;;;;;;;;106992;1306;22051;-89
2022/10/17 13:54:18;;;;;;;20.70;7.40;;;;;;;;;;106958;1304;22041;-87
2022/10/17 13:56:45;;;;;;;18.30;7.00;;;;;;;;;;106983;1298;22107;-86
2022/10/17 13:59:22;;;;;;;11.90;7.20;;;;;;;;;;106992;1306;22112;-88
2022/10/17 14:01:50;;;;;;;17.00;6.50;;;;;;;;;;107039;1298;21991;-89
2022/10/17 14:04:18;;;;;;;21.60;10.20;;;;;;;;;;106967;1301;22711;-87
2022/10/17 14:06:47;;;;;;;13.40;6.80;;;;;;;;;;107018;1305;22084;-88
2022/10/17 14:09:20;;;;;;;15.20;7.00;;;;;;;;;;107129;1302;22111;-86
2022/10/17 14:11:57;;;;;;;23.40;7.70;;;;;;;;;;106900;1305;22078;-91
2022/10/17 14:14:25;;;;;;;16.90;7.50;;;;;;;;;;107052;1306;22178;-87
2022/10/17 14:16:53;;;;;;;14.00;7.10;;;;;;;;;;106960;1306;22136;-89
2022/10/17 14:19:21;;;;;;;12.20;7.20;;;;;;;;;;106946;1306;22099;-87
2022/10/17 14:21:48;;;;;;;14.10;7.50;;;;;;;;;;106907;1307;22104;-89
2022/10/17 14:24:19;;;;;;;12.90;7.10;;;;;;;;;;106960;1306;22035;-89
2022/10/17 14:26:51;;;;;;;12.20;7.00;;;;;;;;;;106898;1307;22493;-85
2022/10/17 14:29:21;;;;;;;14.90;7.50;;;;;;;;;;106961;1306;22058;-88
2022/10/17 14:31:52;;;;;;;13.80;7.30;;;;;;;;;;106910;1306;22061;-87
2022/10/17 14:34:23;;;;;;;15.10;7.30;;;;;;;;;;106964;1306;22109;-86
2022/10/17 14:36:51;;;;;;;13.10;7.30;;;;;;;;;;106882;1305;22082;-87
2022/10/17 14:39:21;;;;;;;15.20;7.40;;;;;;;;;;107017;1307;22062;-88
2022/10/17 14:41:49;;;;;;;15.20;7.60;;;;;;;;;;106851;1306;22064;-87
2022/10/17 14:44:25;;;;;;;13.90;7.50;;;;;;;;;;106898;1307;22118;-87
2022/10/17 14:46:55;;;;;;;12.90;8.10;;;;;;;;;;106963;1306;22107;-89
2022/10/17 14:49:35;;;;;;;16.10;8.10;;;;;;;;;;106938;1298;22088;-87
2022/10/17 14:52:09;;;;;;;12.10;7.50;;;;;;;;;;106905;1306;22010;-85
2022/10/17 14:54:37;;;;;;;13.10;7.30;;;;;;;;;;107038;1303;22091;-87
2022/10/17 14:57:15;;;;;;;14.60;7.80;;;;;;;;;;106882;1307;22994;-87
2022/10/17 14:59:43;;;;;;;27.30;11.60;;;;;;;;;;107031;1306;22386;-89
2022/10/17 15:02:11;;;;;;;15.80;8.60;;;;;;;;;;107032;1305;22093;-85
2022/10/17 15:04:39;;;;;;;24.80;11.60;;;;;;;;;;107079;1294;22116;-86
2022/10/17 15:07:15;;;;;;;41.20;16.90;;;;;;;;;;106853;1307;22765;-87
2022/10/17 15:09:44;;;;;;;17.40;9.40;;;;;;;;;;106812;1306;23110;-86
2022/10/17 15:12:18;;;;;;;24.70;11.50;;;;;;;;;;106854;1306;22877;-87
2022/10/17 15:14:47;;;;;;;32.50;13.60;;;;;;;;;;106993;1300;22006;-87
2022/10/17 15:17:30;;;;;;;16.50;8.80;;;;;;;;;;106887;1306;22689;-88
2022/10/17 15:19:59;;;;;;;16.70;8.80;;;;;;;;;;106851;1306;22093;-86
2022/10/17 15:22:30;;;;;;;16.60;8.90;;;;;;;;;;106848;1306;22123;-86
2022/10/17 15:25:00;;;;;;;15.90;9.60;;;;;;;;;;106779;1306;22068;-87
2022/10/17 15:27:31;;;;;;;26.60;12.40;;;;;;;;;;106864;1306;22163;-87
2022/10/17 15:29:59;;;;;;;23.80;12.20;;;;;;;;;;106869;1306;22062;-88
2022/10/17 15:32:28;;;;;;;21.80;11.10;;;;;;;;;;106866;1306;23237;-86
2022/10/17 15:34:57;;;;;;;18.50;10.40;;;;;;;;;;106830;1306;22090;-86
2022/10/17 15:37:31;;;;;;;20.10;11.30;;;;;;;;;;106847;1306;22062;-86
2022/10/17 15:40:00;;;;;;;24.90;13.30;;;;;;;;;;106973;1306;22100;-87
2022/10/17 15:42:30;;;;;;;20.50;10.30;;;;;;;;;;106879;1307;22101;-88
2022/10/17 15:44:59;;;;;;;30.00;14.20;;;;;;;;;;106930;1306;22119;-86
2022/10/17 15:47:31;;;;;;;21.10;12.00;;;;;;;;;;106885;1309;22072;-86
2022/10/17 15:50:01;;;;;;;19.00;11.00;;;;;;;;;;106868;1307;22080;-87
2022/10/17 15:52:30;;;;;;;20.10;10.40;;;;;;;;;;106747;1307;22087;-85
2022/10/17 15:55:00;;;;;;;21.20;11.90;;;;;;;;;;106892;1306;22065;-87
2022/10/17 15:57:31;;;;;;;21.60;12.10;;;;;;;;;;106825;1306;22125;-87
2022/10/17 15:59:59;;;;;;;25.30;13.10;;;;;;;;;;106793;1302;22117;-87
2022/10/17 16:02:29;;;;;;;21.90;11.70;;;;;;;;;;106768;1307;22897;-87
2022/10/17 16:12:17;;;;;;;25.60;13.20;;;;;;;;;;100566;1327;545201;-89
2022/10/17 16:14:43;;;;;;;21.70;13.00;;;;;;;;;;103447;1295;21987;-89
2022/10/17 16:17:12;;;;;;;23.70;13.30;;;;;;;;;;106925;1306;22158;-85
2022/10/17 16:19:38;;;;;;;24.30;14.30;;;;;;;;;;107024;1304;22080;-86
2022/10/17 16:22:05;;;;;;;23.70;13.10;;;;;;;;;;106925;1306;22077;-86
2022/10/17 16:24:31;;;;;;;26.70;11.90;;;;;;;;;;107309;1293;95798;-84
2022/10/17 16:26:57;;;;;;;23.10;11.00;;;;;;;;;;107127;1304;22088;-86
2022/10/17 16:29:23;;;;;;;17.10;10.40;;;;;;;;;;107478;1279;21982;-85
2022/10/17 16:31:49;;;;;;;16.60;9.50;;;;;;;;;;107115;1299;22096;-87
2022/10/17 16:34:15;;;;;;;16.50;9.80;;;;;;;;;;107090;1303;22160;-86
2022/10/17 16:36:41;;;;;;;16.70;9.70;;;;;;;;;;107136;1303;22070;-88
2022/10/17 16:39:07;;;;;;;17.40;10.00;;;;;;;;;;107366;1293;22168;-88
2022/10/17 16:41:35;;;;;;;18.70;10.20;;;;;;;;;;107162;1303;23145;-88
2022/10/17 16:44:02;;;;;;;18.30;10.10;;;;;;;;;;107366;1294;22064;-87
2022/10/17 16:46:29;;;;;;;18.40;10.40;;;;;;;;;;107077;1291;22240;-87
2022/10/17 16:48:55;;;;;;;15.60;9.80;;;;;;;;;;106954;1303;22795;-88
2022/10/17 16:51:22;;;;;;;19.60;10.50;;;;;;;;;;107069;1301;22069;-87
2022/10/17 16:53:49;;;;;;;19.60;10.50;;;;;;;;;;107067;1278;22290;-89
2022/10/17 16:56:16;;;;;;;16.80;9.90;;;;;;;;;;107086;1289;22877;-87
2022/10/17 16:58:43;;;;;;;20.30;9.90;;;;;;;;;;107116;1303;21992;-87
2022/10/17 17:01:10;;;;;;;18.80;9.60;;;;;;;;;;107088;1304;22826;-87
2022/10/17 17:03:37;;;;;;;17.40;10.10;;;;;;;;;;107040;1303;22177;-86
2022/10/17 17:06:04;;;;;;;15.40;9.10;;;;;;;;;;107291;1297;21905;-86
2022/10/17 17:08:30;;;;;;;17.50;8.70;;;;;;;;;;107105;1303;22323;-87
2022/10/17 17:10:56;;;;;;;16.30;9.60;;;;;;;;;;107395;1282;22705;-85
2022/10/17 17:13:22;;;;;;;16.30;8.90;;;;;;;;;;106989;1303;22042;-86
2022/10/17 17:15:52;;;;;;;15.70;9.10;;;;;;;;;;107144;1303;22158;-85
2022/10/17 17:18:21;;;;;;;16.40;9.50;;;;;;;;;;107036;1298;22019;-87
2022/10/17 17:20:47;;;;;;;16.70;9.10;;;;;;;;;;106987;1303;22670;-88
2022/10/17 17:23:13;;;;;;;17.30;9.10;;;;;;;;;;107096;1304;22078;-87
2022/10/17 17:25:39;;;;;;;17.00;9.90;;;;;;;;;;106988;1298;22096;-87
2022/10/17 17:28:05;;;;;;;17.30;9.90;;;;;;;;;;107011;1304;21954;-86
2022/10/17 17:30:34;;;;;;;19.40;10.10;;;;;;;;;;107099;1303;22995;-85
2022/10/17 17:33:01;;;;;;;17.60;9.60;;;;;;;;;;106960;1303;22086;-86
2022/10/17 17:35:27;;;;;;;19.40;10.10;;;;;;;;;;106955;1304;22388;-86
2022/10/17 17:37:53;;;;;;;16.10;9.20;;;;;;;;;;107144;1303;22102;-86
2022/10/17 17:40:19;;;;;;;19.30;10.20;;;;;;;;;;106959;1303;22053;-85
2022/10/17 17:42:45;;;;;;;17.40;9.90;;;;;;;;;;107136;1302;22698;-86
2022/10/17 17:45:11;;;;;;;17.20;10.00;;;;;;;;;;107159;1303;21931;-87
2022/10/17 17:47:37;;;;;;;17.50;8.50;;;;;;;;;;106979;1305;22294;-87
2022/10/17 17:50:03;;;;;;;18.30;9.30;;;;;;;;;;107084;1303;22093;-87
2022/10/17 17:52:29;;;;;;;15.90;9.10;;;;;;;;;;107146;1302;22056;-87
2022/10/17 17:54:55;;;;;;;19.40;9.80;;;;;;;;;;107269;1297;22835;-87
2022/10/17 17:57:22;;;;;;;17.80;9.10;;;;;;;;;;107105;1303;22083;-87
2022/10/17 17:59:48;;;;;;;17.40;9.60;;;;;;;;;;107165;1303;22220;-86
2022/10/17 18:02:14;;;;;;;16.30;8.30;;;;;;;;;;107084;1303;22037;-85
2022/10/17 18:04:40;;;;;;;15.90;9.80;;;;;;;;;;107061;1303;22697;-85
2022/10/17 18:07:06;;;;;;;15.70;8.40;;;;;;;;;;107115;1303;22103;-85
2022/10/17 18:09:32;;;;;;;17.00;8.40;;;;;;;;;;107119;1303;22089;-85
2022/10/17 18:11:58;;;;;;;16.00;8.00;;;;;;;;;;107049;1303;22206;-85
2022/10/17 18:14:25;;;;;;;14.80;8.60;;;;;;;;;;106924;1303;22413;-86
2022/10/17 18:16:51;;;;;;;15.20;8.70;;;;;;;;;;107053;1287;22093;-86
2022/10/17 18:19:17;;;;;;;15.60;8.70;;;;;;;;;;106946;1303;22119;-86
2022/10/17 18:21:43;;;;;;;20.00;8.90;;;;;;;;;;107061;1303;22115;-86
2022/10/17 18:24:09;;;;;;;19.50;9.90;;;;;;;;;;106932;1304;22077;-87
2022/10/17 18:26:35;;;;;;;18.70;10.50;;;;;;;;;;107053;1303;22064;-86
2022/10/17 18:29:02;;;;;;;19.60;9.80;;;;;;;;;;107337;1289;22066;-86
2022/10/17 18:31:34;;;;;;;15.20;9.60;;;;;;;;;;106940;1303;22765;-87
2022/10/17 18:34:00;;;;;;;17.40;9.80;;;;;;;;;;106937;1303;22669;-88
2022/10/17 18:36:27;;;;;;;16.70;8.90;;;;;;;;;;106968;1303;22062;-87
2022/10/17 18:38:54;;;;;;;24.20;12.70;;;;;;;;;;107083;1303;22649;-86
2022/10/17 18:41:22;;;;;;;21.20;10.60;;;;;;;;;;106988;1301;22177;-86
2022/10/17 18:43:49;;;;;;;17.30;9.30;;;;;;;;;;107061;1303;22081;-86
2022/10/17 18:46:17;;;;;;;15.50;9.60;;;;;;;;;;107068;1303;22600;-86
2022/10/17 18:48:44;;;;;;;18.50;9.70;;;;;;;;;;107348;1296;22890;-85
2022/10/17 18:51:11;;;;;;;17.60;9.10;;;;;;;;;;106917;1302;22078;-87
2022/10/17 18:53:40;;;;;;;21.70;10.80;;;;;;;;;;107041;1304;22156;-87
2022/10/17 18:56:07;;;;;;;18.80;10.80;;;;;;;;;;106971;1303;22868;-87
2022/10/17 18:58:35;;;;;;;19.10;10.30;;;;;;;;;;106963;1304;22289;-86
2022/10/17 19:01:06;;;;;;;21.10;10.00;;;;;;;;;;107087;1303;22894;-87
2022/10/17 19:03:35;;;;;;;19.00;9.70;;;;;;;;;;107066;1304;22456;-86
2022/10/17 19:06:03;;;;;;;16.00;8.60;;;;;;;;;;106988;1304;22053;-84
2022/10/17 19:08:29;;;;;;;14.80;8.50;;;;;;;;;;106945;1306;21790;-86
2022/10/17 19:10:55;;;;;;;14.60;8.60;;;;;;;;;;107034;1305;22103;-86
2022/10/17 19:13:21;;;;;;;18.80;9.20;;;;;;;;;;106945;1301;22730;-87
2022/10/17 19:15:47;;;;;;;16.50;8.80;;;;;;;;;;106924;1299;22127;-87
2022/10/17 19:18:13;;;;;;;14.50;9.00;;;;;;;;;;106916;1304;22136;-86
2022/10/17 19:20:39;;;;;;;16.60;9.60;;;;;;;;;;107068;1305;22128;-86
2022/10/17 19:23:05;;;;;;;16.50;9.90;;;;;;;;;;106945;1291;22111;-84
2022/10/17 19:25:32;;;;;;;18.20;9.20;;;;;;;;;;106918;1300;22774;-85
2022/10/17 19:27:58;;;;;;;14.80;9.30;;;;;;;;;;106946;1290;22059;-85
2022/10/17 19:30:26;;;;;;;14.40;8.00;;;;;;;;;;107027;1297;22734;-85
2022/10/17 19:32:52;;;;;;;14.50;7.70;;;;;;;;;;106928;1304;22068;-85
2022/10/17 19:35:18;;;;;;;14.10;8.10;;;;;;;;;;106982;1306;22079;-84
2022/10/17 19:37:44;;;;;;;16.70;9.00;;;;;;;;;;106979;1304;22137;-84
2022/10/17 19:40:10;;;;;;;17.50;7.50;;;;;;;;;;106954;1304;22081;-85
2022/10/17 19:42:36;;;;;;;14.70;8.70;;;;;;;;;;106991;1289;22052;-85
2022/10/17 19:45:02;;;;;;;14.20;8.70;;;;;;;;;;106944;1306;22628;-84
2022/10/17 19:47:28;;;;;;;17.00;9.40;;;;;;;;;;106972;1304;22130;-85
2022/10/17 19:49:54;;;;;;;19.00;10.30;;;;;;;;;;107079;1291;22104;-85
2022/10/17 19:52:20;;;;;;;18.10;9.60;;;;;;;;;;106976;1304;22095;-86
2022/10/17 19:54:46;;;;;;;14.90;8.30;;;;;;;;;;106962;1290;22089;-85
2022/10/17 19:57:12;;;;;;;14.20;8.00;;;;;;;;;;106962;1305;22747;-88
2022/10/17 19:59:38;;;;;;;14.60;8.10;;;;;;;;;;106946;1303;22767;-85
2022/10/17 20:02:04;;;;;;;16.10;8.90;;;;;;;;;;106894;1307;22086;-85
2022/10/17 20:04:31;;;;;;;15.20;8.60;;;;;;;;;;106896;1306;22095;-86
2022/10/17 20:06:58;;;;;;;13.00;7.90;;;;;;;;;;106762;1306;22112;-84
2022/10/17 20:09:25;;;;;;;16.10;7.40;;;;;;;;;;106773;1306;22048;-84
2022/10/17 20:11:51;;;;;;;12.70;7.20;;;;;;;;;;106912;1306;21986;-82
2022/10/17 20:14:17;;;;;;;13.80;7.00;;;;;;;;;;106905;1306;22089;-82
2022/10/17 20:16:48;;;;;;;15.30;7.40;;;;;;;;;;106764;1306;22064;-83
2022/10/17 20:19:14;;;;;;;15.80;8.20;;;;;;;;;;106779;1302;21917;-84
2022/10/17 20:21:41;;;;;;;17.00;8.20;;;;;;;;;;107019;1299;22607;-83
2022/10/17 20:24:09;;;;;;;13.20;6.90;;;;;;;;;;106770;1301;22165;-81
2022/10/17 20:26:36;;;;;;;13.50;7.40;;;;;;;;;;107015;1288;22824;-83
2022/10/17 20:29:03;;;;;;;13.50;7.70;;;;;;;;;;106735;1303;22132;-84
2022/10/17 20:31:29;;;;;;;14.60;8.00;;;;;;;;;;106763;1306;22204;-83
2022/10/17 20:33:56;;;;;;;16.30;7.90;;;;;;;;;;106714;1306;22075;-84
2022/10/17 20:36:22;;;;;;;15.20;7.60;;;;;;;;;;106902;1306;22089;-83
2022/10/17 20:38:52;;;;;;;11.90;6.90;;;;;;;;;;106774;1306;22606;-84
2022/10/17 20:41:19;;;;;;;13.80;7.20;;;;;;;;;;106729;1306;21981;-83
2022/10/17 20:43:45;;;;;;;12.20;7.10;;;;;;;;;;106787;1306;21969;-84
2022/10/17 20:46:15;;;;;;;14.60;7.30;;;;;;;;;;106779;1301;21680;-83
2022/10/17 20:48:41;;;;;;;12.40;6.50;;;;;;;;;;106785;1306;22077;-83
2022/10/17 20:51:07;;;;;;;14.20;7.30;;;;;;;;;;106907;1306;22074;-85
2022/10/17 20:53:33;;;;;;;19.80;7.40;;;;;;;;;;106731;1306;22044;-84
2022/10/17 20:56:00;;;;;;;15.00;6.60;;;;;;;;;;106704;1306;22064;-83
2022/10/17 20:58:26;;;;;;;18.90;7.10;;;;;;;;;;106757;1301;22088;-84
2022/10/17 21:00:52;;;;;;;15.50;5.60;;;;;;;;;;106967;1298;22196;-83
2022/10/17 21:03:18;;;;;;;12.60;7.10;;;;;;;;;;106891;1306;22283;-84
2022/10/17 21:05:44;;;;;;;16.40;7.00;;;;;;;;;;106890;1306;22318;-82
2022/10/17 21:08:10;;;;;;;13.20;6.30;;;;;;;;;;106864;1306;22115;-83
2022/10/17 21:10:36;;;;;;;12.20;6.50;;;;;;;;;;106797;1306;21721;-84
2022/10/17 21:13:02;;;;;;;12.70;5.90;;;;;;;;;;106857;1306;22111;-83
2022/10/17 21:15:28;;;;;;;16.00;9.20;;;;;;;;;;106869;1306;22069;-84
2022/10/17 21:17:54;;;;;;;15.60;7.50;;;;;;;;;;106873;1306;22690;-83
2022/10/17 21:20:20;;;;;;;15.30;6.90;;;;;;;;;;106874;1301;22772;-85
2022/10/17 21:22:46;;;;;;;12.60;6.60;;;;;;;;;;106754;1306;22105;-84
2022/10/17 21:25:12;;;;;;;12.60;6.80;;;;;;;;;;106873;1306;22131;-83
2022/10/17 21:27:38;;;;;;;13.60;7.20;;;;;;;;;;106875;1306;22332;-83
2022/10/17 21:30:04;;;;;;;12.20;6.50;;;;;;;;;;106883;1306;22676;-83
2022/10/17 21:32:30;;;;;;;14.30;6.40;;;;;;;;;;106743;1306;22152;-85